createdAt,value
2017-11-08T00:01:33.719Z,57.30
2017-11-08T00:04:02.088Z,50.50
2017-11-08T00:06:30.681Z,49.67
2017-11-08T00:08:59.250Z,46.93
2017-11-08T00:11:28.043Z,47.83
2017-11-08T00:13:57.176Z,49.00
2017-11-08T00:16:25.541Z,50.90
2017-11-08T00:19:09.199Z,46.03
2017-11-08T00:21:43.000Z,43.53
2017-11-08T00:24:13.179Z,52.17
2017-11-08T00:26:41.551Z,46.43
2017-11-08T00:29:09.909Z,53.23
2017-11-08T00:31:39.252Z,54.83
2017-11-08T00:34:07.628Z,46.17
2017-11-08T00:36:35.990Z,55.10
2017-11-08T00:39:04.674Z,49.03
2017-11-08T00:41:33.041Z,49.03
2017-11-08T00:44:01.413Z,47.07
2017-11-08T00:46:29.776Z,43.93
2017-11-08T00:48:58.995Z,46.73
2017-11-08T00:51:27.374Z,46.20
2017-11-08T00:53:55.741Z,47.60
2017-11-08T00:56:24.107Z,53.83
2017-11-08T00:58:53.327Z,51.27
2017-11-08T01:01:21.771Z,47.03
2017-11-08T01:03:51.227Z,48.13
2017-11-08T01:06:20.604Z,44.93
2017-11-08T01:08:48.977Z,48.80
2017-11-08T01:11:17.335Z,48.60
2017-11-08T01:13:45.831Z,49.83
2017-11-08T01:16:13.924Z,46.40
2017-11-08T01:18:42.303Z,55.50
2017-11-08T01:21:10.673Z,50.70
2017-11-08T01:23:39.819Z,47.57
2017-11-08T01:26:09.118Z,45.83
2017-11-08T01:28:37.471Z,44.10
2017-11-08T01:31:06.056Z,47.90
2017-11-08T01:33:35.336Z,48.67
2017-11-08T01:36:04.366Z,42.00
2017-11-08T01:38:32.043Z,46.87
2017-11-08T01:44:08.546Z,49.83
2017-11-08T01:59:32.344Z,41.30
2017-11-08T02:02:00.938Z,44.60
2017-11-08T02:04:29.380Z,36.97
2017-11-08T02:06:58.546Z,40.90
2017-11-08T02:09:26.946Z,40.40
2017-11-08T02:11:55.336Z,35.60
2017-11-08T02:14:24.892Z,35.03
2017-11-08T02:16:53.264Z,36.43
2017-11-08T02:19:21.288Z,41.77
2017-11-08T02:21:49.845Z,42.57
2017-11-08T02:24:18.995Z,39.17
2017-11-08T02:26:47.022Z,36.83
2017-11-08T02:29:15.395Z,38.67
2017-11-08T02:31:44.914Z,36.13
2017-11-08T02:34:12.574Z,40.20
2017-11-08T02:36:40.986Z,41.87
2017-11-08T02:39:09.576Z,37.20
2017-11-08T02:41:37.939Z,37.07
2017-11-08T02:44:06.384Z,39.87
2017-11-08T02:46:37.116Z,38.67
2017-11-08T02:49:05.994Z,38.83
2017-11-08T02:51:35.811Z,37.80
2017-11-08T02:54:11.660Z,38.37
2017-11-08T02:56:40.341Z,36.43
2017-11-08T02:59:08.931Z,39.97
2017-11-08T03:01:38.105Z,36.37
2017-11-08T03:04:07.722Z,35.33
2017-11-08T03:06:36.083Z,32.40
2017-11-08T03:09:03.860Z,37.90
2017-11-08T03:11:32.240Z,34.03
2017-11-08T03:14:00.925Z,32.60
2017-11-08T03:16:29.299Z,31.83
2017-11-08T03:18:58.285Z,28.70
2017-11-08T03:21:26.646Z,35.30
2017-11-08T03:23:55.020Z,38.63
2017-11-08T03:26:24.478Z,38.87
2017-11-08T03:28:54.449Z,32.10
2017-11-08T03:31:23.602Z,34.27
2017-11-08T03:33:51.988Z,43.17
2017-11-08T03:36:19.665Z,36.03
2017-11-08T03:38:48.029Z,39.90
2017-11-08T03:41:16.690Z,35.93
2017-11-08T03:43:45.943Z,36.87
2017-11-08T03:46:14.472Z,41.57
2017-11-08T03:48:42.842Z,37.43
2017-11-08T03:51:11.231Z,32.60
2017-11-08T03:53:40.388Z,34.77
2017-11-08T03:56:09.753Z,33.87
2017-11-08T03:58:38.124Z,34.70
2017-11-08T04:01:07.741Z,35.30
2017-11-08T04:03:36.091Z,31.27
2017-11-08T04:06:04.493Z,34.83
2017-11-08T04:08:32.975Z,30.50
2017-11-08T04:11:01.332Z,30.60
2017-11-08T04:13:30.380Z,31.50
2017-11-08T04:15:59.437Z,34.63
2017-11-08T04:18:27.871Z,29.67
2017-11-08T04:20:56.247Z,33.50
2017-11-08T04:23:25.433Z,33.07
2017-11-08T04:25:53.462Z,33.00
2017-11-08T04:28:22.435Z,29.40
2017-11-08T04:30:50.795Z,33.17
2017-11-08T04:33:19.168Z,35.23
2017-11-08T04:35:48.420Z,34.17
2017-11-08T04:38:16.785Z,32.23
2017-11-08T04:40:45.139Z,31.27
2017-11-08T04:43:14.572Z,29.50
2017-11-08T04:45:42.581Z,31.13
2017-11-08T04:48:11.694Z,32.23
2017-11-08T04:50:40.052Z,29.63
2017-11-08T04:53:08.447Z,28.33
2017-11-08T04:55:38.770Z,31.20
2017-11-08T04:58:09.549Z,29.90
2017-11-08T05:00:37.998Z,29.30
2017-11-08T05:03:06.371Z,32.63
2017-11-08T05:05:34.744Z,30.10
2017-11-08T05:08:03.459Z,29.30
2017-11-08T05:10:32.608Z,27.33
2017-11-08T05:13:01.106Z,27.50
2017-11-08T05:15:29.567Z,26.80
2017-11-08T05:17:57.924Z,24.73
2017-11-08T05:20:27.145Z,32.03
2017-11-08T05:22:55.539Z,30.03
2017-11-08T05:25:24.123Z,28.77
2017-11-08T05:27:53.111Z,31.43
2017-11-08T05:30:26.256Z,31.87
2017-11-08T05:32:54.635Z,27.83
2017-11-08T05:35:23.534Z,32.33
2017-11-08T05:37:52.416Z,31.30
2017-11-08T05:40:20.786Z,29.80
2017-11-08T05:42:49.161Z,27.87
2017-11-08T05:45:17.555Z,29.40
2017-11-08T05:47:46.029Z,28.67
2017-11-08T05:50:14.391Z,30.50
2017-11-08T05:52:42.751Z,32.10
2017-11-08T05:55:11.881Z,27.57
2017-11-08T05:57:40.265Z,27.70
2017-11-08T06:00:08.666Z,31.70
2017-11-08T06:02:37.289Z,27.60
2017-11-08T06:05:05.698Z,30.53
2017-11-08T06:07:34.080Z,27.37
2017-11-08T06:10:02.445Z,29.70
2017-11-08T06:12:31.471Z,29.57
2017-11-08T06:14:59.849Z,29.17
2017-11-08T06:17:28.216Z,31.87
2017-11-08T06:19:56.586Z,32.63
2017-11-08T06:22:25.317Z,28.60
2017-11-08T06:24:53.934Z,30.70
2017-11-08T06:27:22.318Z,32.63
2017-11-08T06:29:50.690Z,30.13
2017-11-08T06:32:19.252Z,27.43
2017-11-08T06:34:47.660Z,28.47
2017-11-08T06:37:16.101Z,32.53
2017-11-08T06:39:44.465Z,32.03
2017-11-08T06:42:12.973Z,31.50
2017-11-08T06:44:41.343Z,27.20
2017-11-08T06:47:09.718Z,32.03
2017-11-08T06:49:38.104Z,28.80
2017-11-08T06:52:06.494Z,34.53
2017-11-08T06:54:35.161Z,32.80
2017-11-08T06:57:03.837Z,28.27
2017-11-08T06:59:33.283Z,29.53
2017-11-08T07:02:01.675Z,30.03
2017-11-08T07:04:30.030Z,32.67
2017-11-08T07:06:58.456Z,28.20
2017-11-08T07:09:26.824Z,32.47
2017-11-08T07:11:54.858Z,31.23
2017-11-08T07:14:23.291Z,30.77
2017-11-08T07:16:51.647Z,29.07
2017-11-08T07:19:20.024Z,30.73
2017-11-08T07:21:48.391Z,32.43
2017-11-08T07:24:16.782Z,31.53
2017-11-08T07:26:45.156Z,33.77
2017-11-08T07:29:13.535Z,34.73
2017-11-08T07:31:41.915Z,40.13
2017-11-08T07:34:10.295Z,32.27
2017-11-08T07:36:38.671Z,30.37
2017-11-08T07:39:07.039Z,34.10
2017-11-08T07:41:35.432Z,32.93
2017-11-08T07:44:04.063Z,30.07
2017-11-08T07:46:32.439Z,32.80
2017-11-08T07:49:00.819Z,32.90
2017-11-08T07:51:29.207Z,33.80
2017-11-08T07:53:57.565Z,32.10
2017-11-08T07:56:25.953Z,35.10
2017-11-08T07:58:54.315Z,34.23
2017-11-08T08:01:22.360Z,31.50
2017-11-08T08:03:50.919Z,33.30
2017-11-08T08:06:19.287Z,35.60
2017-11-08T08:08:47.666Z,31.70
2017-11-08T08:11:19.715Z,35.20
2017-11-08T08:13:48.301Z,35.90
2017-11-08T08:16:16.715Z,38.93
2017-11-08T08:18:45.106Z,35.90
2017-11-08T08:21:16.378Z,32.70
2017-11-08T08:23:44.749Z,36.93
2017-11-08T08:26:13.107Z,35.13
2017-11-08T08:28:41.936Z,33.47
2017-11-08T08:31:10.313Z,31.13
2017-11-08T08:33:38.677Z,32.27
2017-11-08T08:36:07.048Z,38.10
2017-11-08T08:38:35.416Z,33.90
2017-11-08T08:41:04.226Z,35.60
2017-11-08T08:43:32.614Z,35.90
2017-11-08T08:46:00.989Z,37.20
2017-11-08T08:48:29.364Z,38.47
2017-11-08T08:50:57.728Z,34.47
2017-11-08T08:53:27.049Z,35.87
2017-11-08T08:55:55.429Z,36.63
2017-11-08T08:58:24.070Z,37.43
2017-11-08T09:00:52.473Z,35.80
2017-11-08T09:03:20.839Z,37.03
2017-11-08T09:05:49.211Z,39.73
2017-11-08T09:08:17.588Z,39.80
2017-11-08T09:10:45.953Z,36.60
2017-11-08T09:13:15.283Z,36.03
2017-11-08T09:15:43.469Z,36.37
2017-11-08T09:18:11.859Z,38.70
2017-11-08T09:20:40.234Z,37.60
2017-11-08T09:23:08.260Z,39.17
2017-11-08T09:25:36.732Z,46.80
2017-11-08T09:28:04.412Z,43.30
2017-11-08T09:30:32.591Z,40.70
2017-11-08T09:33:01.009Z,35.70
2017-11-08T09:35:30.140Z,36.87
2017-11-08T09:38:04.004Z,42.73
2017-11-08T09:40:32.400Z,44.37
2017-11-08T09:43:02.731Z,41.33
2017-11-08T09:45:31.093Z,39.90
2017-11-08T09:47:59.455Z,36.53
2017-11-08T09:50:27.962Z,38.07
2017-11-08T09:52:56.732Z,41.40
2017-11-08T09:55:25.108Z,35.73
2017-11-08T09:57:53.276Z,40.20
2017-11-08T10:00:22.177Z,44.67
2017-11-08T10:02:50.549Z,38.43
2017-11-08T10:05:18.941Z,42.63
2017-11-08T10:07:47.034Z,42.47
2017-11-08T10:10:15.650Z,44.20
2017-11-08T10:12:44.499Z,41.47
2017-11-08T10:15:13.872Z,43.73
2017-11-08T10:17:42.903Z,50.50
2017-11-08T10:20:11.304Z,47.80
2017-11-08T10:22:39.740Z,51.67
2017-11-08T10:25:08.108Z,54.60
2017-11-08T10:27:36.814Z,52.03
2017-11-08T10:30:05.091Z,63.67
2017-11-08T10:32:33.461Z,64.37
2017-11-08T10:35:01.992Z,52.50
2017-11-08T10:37:30.399Z,62.10
2017-11-08T10:39:59.474Z,63.17
2017-11-08T10:42:29.378Z,66.50
2017-11-08T10:44:57.381Z,78.40
2017-11-08T10:47:26.528Z,68.90
2017-11-08T10:49:54.932Z,69.40
2017-11-08T10:52:23.308Z,88.77
2017-11-08T10:54:51.528Z,88.03
2017-11-08T10:57:19.892Z,91.43
2017-11-08T10:59:51.263Z,85.13
2017-11-08T11:02:19.981Z,92.60
2017-11-08T11:04:47.960Z,83.70
2017-11-08T11:07:17.480Z,99.80
2017-11-08T11:09:52.001Z,98.60
2017-11-08T11:12:20.031Z,89.13
2017-11-08T11:14:48.682Z,86.23
2017-11-08T11:17:17.323Z,97.53
2017-11-08T11:19:47.917Z,99.70
2017-11-08T11:22:15.817Z,97.10
2017-11-08T11:24:44.267Z,95.33
2017-11-08T11:27:12.643Z,90.20
2017-11-08T11:29:40.405Z,100.17
2017-11-08T11:32:10.702Z,85.87
2017-11-08T11:34:38.429Z,94.83
2017-11-08T11:37:06.897Z,95.37
2017-11-08T11:39:34.920Z,87.23
2017-11-08T11:42:02.666Z,106.47
2017-11-08T11:44:31.322Z,97.03
2017-11-08T11:46:59.318Z,107.20
2017-11-08T11:49:32.701Z,97.87
2017-11-08T11:52:00.646Z,98.60
2017-11-08T11:57:28.519Z,93.73
2017-11-08T11:59:56.973Z,94.73
2017-11-08T12:02:24.458Z,93.10
2017-11-08T12:04:52.749Z,100.47
2017-11-08T12:07:21.048Z,90.97
2017-11-08T12:09:48.805Z,96.93
2017-11-08T12:12:16.475Z,108.10
2017-11-08T12:14:45.767Z,96.70
2017-11-08T12:17:14.653Z,104.37
2017-11-08T12:19:42.415Z,107.93
2017-11-08T12:22:10.609Z,121.13
2017-11-08T12:24:38.651Z,113.13
2017-11-08T12:27:11.408Z,106.43
2017-11-08T12:29:40.729Z,117.17
2017-11-08T12:32:09.180Z,109.23
2017-11-08T12:34:38.952Z,105.23
2017-11-08T12:37:06.637Z,130.87
2017-11-08T12:39:34.432Z,115.73
2017-11-08T12:42:03.708Z,115.50
2017-11-08T12:47:39.403Z,113.40
2017-11-08T12:50:07.880Z,117.53
2017-11-08T12:52:36.039Z,115.67
2017-11-08T12:55:03.971Z,118.83
2017-11-08T12:57:36.525Z,109.00
2017-11-08T13:00:04.206Z,123.87
2017-11-08T13:02:32.647Z,114.40
2017-11-08T13:05:00.602Z,120.47
2017-11-08T13:07:28.895Z,123.57
2017-11-08T13:09:56.685Z,116.73
2017-11-08T13:12:24.612Z,126.60
2017-11-08T13:14:53.080Z,109.53
2017-11-08T13:17:21.377Z,120.33
2017-11-08T13:19:49.382Z,121.47
2017-11-08T13:22:17.387Z,116.73
2017-11-08T13:24:46.052Z,118.00
2017-11-08T13:27:13.901Z,103.90
2017-11-08T13:42:37.297Z,102.73
2017-11-08T13:45:05.705Z,116.83
2017-11-08T13:47:34.939Z,109.90
2017-11-08T13:50:03.115Z,105.77
2017-11-08T13:52:30.799Z,95.70
2017-11-08T13:54:58.820Z,107.57
2017-11-08T13:57:26.515Z,108.70
2017-11-08T13:59:54.601Z,104.87
2017-11-08T14:02:22.435Z,98.30
2017-11-08T14:04:50.359Z,105.77
2017-11-08T14:07:18.737Z,106.60
2017-11-08T14:09:47.353Z,97.20
2017-11-08T14:12:15.713Z,96.40
2017-11-08T14:14:44.118Z,97.10
2017-11-08T14:17:12.746Z,94.63
2017-11-08T14:19:41.116Z,113.00
2017-11-08T14:22:09.539Z,104.93
2017-11-08T14:24:38.122Z,106.27
2017-11-08T14:27:06.503Z,101.97
2017-11-08T14:29:34.889Z,99.57
2017-11-08T14:32:03.276Z,98.10
2017-11-08T14:34:31.653Z,94.03
2017-11-08T14:37:00.054Z,118.13
2017-11-08T14:39:28.443Z,101.17
2017-11-08T14:41:58.600Z,105.10
2017-11-08T14:44:27.075Z,97.43
2017-11-08T14:46:55.442Z,99.33
2017-11-08T14:49:23.819Z,99.57
2017-11-08T14:54:44.546Z,103.73
2017-11-08T14:57:12.935Z,101.70
2017-11-08T14:59:41.320Z,95.23
2017-11-08T15:02:09.705Z,88.50
2017-11-08T15:04:38.353Z,88.40
2017-11-08T15:07:06.721Z,87.70
2017-11-08T15:09:35.309Z,91.57
2017-11-08T15:12:03.672Z,86.67
2017-11-08T15:14:37.589Z,80.10
2017-11-08T15:17:06.072Z,83.67
2017-11-08T15:19:34.438Z,93.37
2017-11-08T15:22:02.817Z,92.53
2017-11-08T15:24:31.196Z,86.17
2017-11-08T15:26:59.881Z,83.53
2017-11-08T15:29:31.229Z,80.93
2017-11-08T15:31:59.612Z,88.80
2017-11-08T15:34:34.211Z,84.67
2017-11-08T15:37:02.697Z,84.27
2017-11-08T15:39:31.283Z,78.57
2017-11-08T15:41:59.637Z,79.50
2017-11-08T15:44:28.775Z,82.83
2017-11-08T15:46:57.332Z,84.77
2017-11-08T15:49:25.693Z,89.27
2017-11-08T15:51:54.124Z,87.20
2017-11-08T15:54:22.494Z,87.57
2017-11-08T15:56:50.882Z,88.07
2017-11-08T15:59:19.260Z,87.43
2017-11-08T16:01:47.617Z,82.97
2017-11-08T16:04:28.457Z,91.07
2017-11-08T16:07:03.020Z,90.23
2017-11-08T16:19:11.401Z,78.97
2017-11-08T16:21:39.986Z,93.70
2017-11-08T16:24:08.371Z,83.43
2017-11-08T16:26:36.888Z,86.37
2017-11-08T16:29:05.354Z,86.70
2017-11-08T16:31:34.040Z,85.20
2017-11-08T16:34:02.514Z,89.43
2017-11-08T16:36:30.535Z,92.07
2017-11-08T16:38:58.933Z,84.30
2017-11-08T16:41:28.339Z,90.37
2017-11-08T16:43:57.479Z,81.93
2017-11-08T16:46:25.861Z,87.47
2017-11-08T16:48:54.241Z,79.10
2017-11-08T16:51:23.053Z,81.17
2017-11-08T16:53:52.196Z,83.07
2017-11-08T16:56:20.584Z,75.77
2017-11-08T16:58:48.951Z,81.00
2017-11-08T17:01:17.346Z,82.43
2017-11-08T17:03:45.765Z,79.77
2017-11-08T17:06:14.135Z,78.40
2017-11-08T17:08:42.509Z,80.97
2017-11-08T17:11:10.887Z,84.33
2017-11-08T17:13:39.936Z,81.10
2017-11-08T17:16:09.255Z,85.53
2017-11-08T17:18:38.753Z,77.53
2017-11-08T17:21:07.129Z,69.00
2017-11-08T17:23:35.783Z,75.30
2017-11-08T17:26:04.165Z,77.40
2017-11-08T17:28:32.541Z,80.33
2017-11-08T17:31:00.905Z,73.77
2017-11-08T17:33:30.044Z,78.47
2017-11-08T17:35:58.419Z,81.63
2017-11-08T17:38:27.569Z,74.90
2017-11-08T17:40:56.067Z,81.10
2017-11-08T17:43:24.467Z,78.17
2017-11-08T17:45:52.853Z,82.10
2017-11-08T17:48:22.001Z,77.53
2017-11-08T17:50:50.383Z,82.03
2017-11-08T17:53:18.766Z,93.30
2017-11-08T17:55:47.153Z,81.33
2017-11-08T17:58:15.792Z,95.17
2017-11-08T18:00:44.256Z,90.43
2017-11-08T18:03:12.622Z,83.83
2017-11-08T18:05:40.989Z,89.70
2017-11-08T18:08:09.398Z,86.17
2017-11-08T18:10:37.804Z,82.10
2017-11-08T18:13:06.184Z,78.80
2017-11-08T18:15:34.570Z,83.07
2017-11-08T18:18:02.982Z,79.43
2017-11-08T18:20:35.688Z,78.43
2017-11-08T18:23:03.969Z,80.20
2017-11-08T18:25:32.609Z,82.83
2017-11-08T18:28:01.005Z,76.57
2017-11-08T18:30:29.651Z,74.70
2017-11-08T18:32:58.802Z,67.27
2017-11-08T18:35:27.180Z,78.10
2017-11-08T18:37:55.549Z,79.27
2017-11-08T18:40:23.999Z,73.00
2017-11-08T18:42:52.370Z,77.57
2017-11-08T18:45:20.757Z,74.63
2017-11-08T18:47:49.127Z,71.60
2017-11-08T18:50:17.702Z,77.50
2017-11-08T18:52:46.866Z,81.47
2017-11-08T18:55:15.414Z,82.80
2017-11-08T18:57:44.084Z,98.90
2017-11-08T19:00:12.167Z,83.00
2017-11-08T19:02:40.534Z,81.33
2017-11-08T19:05:08.911Z,72.70
2017-11-08T19:07:37.287Z,91.77
2017-11-08T19:10:05.710Z,82.13
2017-11-08T19:12:34.100Z,88.90
2017-11-08T19:15:02.484Z,78.83
2017-11-08T19:17:30.764Z,75.07
2017-11-08T19:19:59.918Z,80.87
2017-11-08T19:22:28.296Z,83.87
2017-11-08T19:24:56.702Z,86.70
2017-11-08T19:27:24.901Z,78.97
2017-11-08T19:29:54.440Z,83.03
2017-11-08T19:32:22.649Z,86.63
2017-11-08T19:34:51.604Z,89.63
2017-11-08T19:37:22.078Z,94.27
2017-11-08T19:39:50.715Z,78.67
2017-11-08T19:42:19.768Z,86.97
2017-11-08T19:44:48.956Z,84.23
2017-11-08T19:47:17.349Z,83.77
2017-11-08T19:49:45.727Z,88.97
2017-11-08T19:52:14.133Z,89.20
2017-11-08T19:54:42.751Z,83.03
2017-11-08T19:57:11.169Z,110.33
2017-11-08T19:59:39.601Z,92.50
2017-11-08T20:02:08.222Z,82.93
2017-11-08T20:04:36.682Z,85.00
2017-11-08T20:07:05.061Z,86.60
2017-11-08T20:09:33.284Z,91.63
2017-11-08T20:12:01.681Z,80.00
2017-11-08T20:14:30.052Z,99.07
2017-11-08T20:16:58.433Z,80.93
2017-11-08T20:19:26.809Z,95.63
2017-11-08T20:21:55.258Z,82.20
2017-11-08T20:24:23.669Z,93.37
2017-11-08T20:26:52.084Z,90.20
2017-11-08T20:29:20.954Z,89.90
2017-11-08T20:31:49.356Z,92.87
2017-11-08T20:34:17.748Z,100.83
2017-11-08T20:36:46.131Z,98.60
2017-11-08T20:39:15.295Z,103.30
2017-11-08T20:41:43.751Z,91.80
2017-11-08T20:44:12.134Z,93.17
2017-11-08T20:46:40.645Z,101.30
2017-11-08T20:49:09.020Z,82.47
2017-11-08T20:51:37.407Z,92.53
2017-11-08T20:54:05.796Z,94.07
2017-11-08T20:56:33.494Z,94.03
2017-11-08T20:59:02.077Z,91.67
2017-11-08T21:01:30.456Z,85.70
2017-11-08T21:03:58.848Z,89.47
2017-11-08T21:06:27.233Z,89.07
2017-11-08T21:08:55.613Z,94.10
2017-11-08T21:11:25.489Z,101.17
2017-11-08T21:13:53.850Z,100.43
2017-11-08T21:16:22.214Z,96.97
2017-11-08T21:18:51.349Z,90.17
2017-11-08T21:21:19.732Z,94.20
2017-11-08T21:23:48.148Z,83.03
2017-11-08T21:26:16.512Z,91.07
2017-11-08T21:28:45.360Z,96.87
2017-11-08T21:31:13.776Z,83.83
2017-11-08T21:33:42.441Z,89.83
2017-11-08T21:36:10.805Z,87.50
2017-11-08T21:38:39.183Z,93.03
2017-11-08T21:41:07.580Z,99.00
2017-11-08T21:43:35.955Z,92.23
2017-11-08T21:46:04.250Z,89.50
2017-11-08T21:48:32.628Z,101.00
2017-11-08T21:51:01.016Z,93.00
2017-11-08T21:53:29.429Z,101.97
2017-11-08T21:55:57.820Z,108.67
2017-11-08T21:58:26.479Z,97.13
2017-11-08T22:00:54.985Z,91.17
2017-11-08T22:03:23.354Z,97.10
2017-11-08T22:05:51.773Z,89.33
2017-11-08T22:08:20.493Z,90.50
2017-11-08T22:10:48.870Z,95.93
2017-11-08T22:13:17.245Z,105.43
2017-11-08T22:15:45.649Z,106.90
2017-11-08T22:18:14.028Z,92.07
2017-11-08T22:20:48.853Z,96.33
2017-11-08T22:23:17.253Z,89.20
2017-11-08T22:25:45.632Z,89.97
2017-11-08T22:28:14.019Z,97.37
2017-11-08T22:30:42.470Z,104.10
2017-11-08T22:33:10.863Z,92.33
2017-11-08T22:35:39.443Z,97.80
2017-11-08T22:38:08.304Z,90.97
2017-11-08T22:40:37.209Z,94.73
2017-11-08T22:43:07.377Z,108.87
2017-11-08T22:45:35.739Z,95.20
2017-11-08T22:48:04.264Z,87.07
2017-11-08T22:50:32.644Z,92.97
2017-11-08T22:53:01.238Z,97.17
2017-11-08T22:55:29.668Z,86.07
2017-11-08T22:57:58.044Z,92.70
2017-11-08T23:00:27.124Z,95.10
2017-11-08T23:02:55.492Z,93.30
2017-11-08T23:05:23.868Z,95.67
2017-11-08T23:07:52.261Z,91.80
2017-11-08T23:10:20.642Z,105.50
2017-11-08T23:12:49.028Z,100.17
2017-11-08T23:15:17.642Z,86.10
2017-11-08T23:17:46.191Z,84.77
2017-11-08T23:20:16.234Z,94.77
2017-11-08T23:22:45.324Z,107.73
2017-11-08T23:25:13.719Z,94.00
2017-11-08T23:27:42.869Z,93.00
2017-11-08T23:30:11.423Z,94.07
2017-11-08T23:32:40.081Z,92.27
2017-11-08T23:35:09.625Z,99.50
2017-11-08T23:37:37.998Z,97.80
2017-11-08T23:40:07.679Z,84.73
2017-11-08T23:42:36.553Z,90.97
2017-11-08T23:45:05.120Z,93.63
2017-11-08T23:47:33.536Z,95.77
2017-11-08T23:50:01.900Z,103.33
2017-11-08T23:52:30.276Z,101.67
2017-11-08T23:54:58.644Z,98.27
2017-11-08T23:57:27.652Z,95.43
